»·PEaware :: DCM89 KSAN-KLAS

DCM89 :: KSAN-KLAS

FLIGHT INFORMATION

Flight Status: Arrived
Operator:
DotCom
More flights by this operator :: More flights under this callsign
Pilot: Josh T. (20631)
Aircraft: DASSAULT AVIATION FALCON 50
(FA50)
More flights by this aircraft type
Origin: KSAN San Diego Intl-Lindbergh
United States
Destination: KLAS McCarran Intl
United States
More flights between these airports :: More routes between these airports
Route: PADRZ2 CHKNN SEBBY YELAH MISEN KEPEC6
File this flight plan on PilotEdge
Remarks:
Altitude:
(Current/Filed)
35,000ft
Speed:
(Current/Filed)
450kts
Departed: 10-Jan-21 09:37 PM
Arrived: 10-Jan-21 10:29 PM
Distance/Time
Traveled:
224nm/0:51
Distance/Time
To Go:
Arrived

Flight Plot

Page will automatically refresh every two minutes.

Flight plan parsing failed; only flown route is shown


Map Options




Map Legend


Flown Route
Filed Route
Departure Airport
Arrival Airport
Navaid (VOR, NDB)
Fix

Horizontal Profiles

Position Reports

Time Latitude Longitude Heading Altitude Ground
Speed
10-Jan-21 21:12 32.734023 -117.179760 104 18ft 0kts
10-Jan-21 21:13 32.734023 -117.179760 104 18ft 0kts
10-Jan-21 21:14 32.734023 -117.179760 104 18ft 0kts
10-Jan-21 21:15 32.734023 -117.179760 104 18ft 0kts
10-Jan-21 21:16 32.734023 -117.179760 104 18ft 0kts
10-Jan-21 21:17 32.734023 -117.179760 104 18ft 0kts
10-Jan-21 21:18 32.734023 -117.179760 104 18ft 0kts
10-Jan-21 21:19 32.734023 -117.179760 104 18ft 0kts
10-Jan-21 21:20 32.734023 -117.179760 104 18ft 0kts
10-Jan-21 21:21 32.734023 -117.179760 104 18ft 0kts
10-Jan-21 21:22 32.734023 -117.179760 104 18ft 0kts
10-Jan-21 21:23 32.734023 -117.179760 104 18ft 0kts
10-Jan-21 21:24 32.734023 -117.179760 104 18ft 0kts
10-Jan-21 21:25 32.734023 -117.179760 104 18ft 0kts
10-Jan-21 21:26 32.734023 -117.179760 104 18ft 0kts
10-Jan-21 21:27 32.734023 -117.179760 104 18ft 0kts
10-Jan-21 21:28 32.734023 -117.179759 104 18ft 0kts
10-Jan-21 21:29 32.734022 -117.179756 104 18ft 0kts
10-Jan-21 21:30 32.733997 -117.179642 104 18ft 1kts
10-Jan-21 21:31 32.733989 -117.179610 104 18ft 0kts
10-Jan-21 21:32 32.733812 -117.179433 185 18ft 4kts
10-Jan-21 21:33 32.732760 -117.178523 106 18ft 7kts
10-Jan-21 21:34 32.731735 -117.176500 150 18ft 6kts
10-Jan-21 21:35 32.730212 -117.175339 198 18ft 5kts
10-Jan-21 21:36 32.735524 -117.197516 286 589ft 160kts
10-Jan-21 21:37 32.759839 -117.245215 305 4257ft 183kts
10-Jan-21 21:38 32.794259 -117.308451 304 7076ft 269kts
10-Jan-21 21:39 32.841319 -117.383170 309 11340ft 281kts
10-Jan-21 21:40 32.888583 -117.456509 308 15106ft 283kts
10-Jan-21 21:41 32.937892 -117.533199 307 18209ft 300kts
10-Jan-21 21:42 32.989346 -117.613486 308 21209ft 308kts
10-Jan-21 21:43 33.042169 -117.696040 308 23740ft 316kts
10-Jan-21 21:44 33.104236 -117.770675 319 25922ft 321kts
10-Jan-21 21:45 33.173001 -117.840685 320 27970ft 328kts
10-Jan-21 21:46 33.263222 -117.851017 0 29990ft 340kts
10-Jan-21 21:47 33.358329 -117.842799 359 31654ft 345kts
10-Jan-21 21:48 33.454906 -117.834236 359 33060ft 351kts
10-Jan-21 21:49 33.553010 -117.825442 0 34285ft 356kts
10-Jan-21 21:50 33.652750 -117.816492 359 35180ft 365kts
10-Jan-21 21:51 33.757593 -117.807118 0 35250ft 390kts
10-Jan-21 21:52 33.868717 -117.797066 0 35259ft 408kts
10-Jan-21 21:53 33.983639 -117.786627 0 35261ft 419kts
10-Jan-21 21:54 34.096802 -117.751547 26 35261ft 439kts
10-Jan-21 21:55 34.182410 -117.641458 44 35258ft 454kts
10-Jan-21 21:56 34.262848 -117.523475 44 35257ft 455kts
10-Jan-21 21:57 34.343229 -117.405259 44 35266ft 455kts
10-Jan-21 21:58 34.423591 -117.286689 44 35278ft 456kts
10-Jan-21 21:59 34.504118 -117.167474 44 35303ft 457kts
10-Jan-21 22:00 34.584744 -117.047713 44 35304ft 458kts
10-Jan-21 22:01 34.665075 -116.927975 44 35316ft 459kts
10-Jan-21 22:02 34.746271 -116.806646 44 34506ft 473kts
10-Jan-21 22:03 34.830308 -116.680938 43 31743ft 472kts
10-Jan-21 22:04 34.925134 -116.575963 33 28960ft 458kts
10-Jan-21 22:05 35.025572 -116.478458 33 26077ft 465kts
10-Jan-21 22:06 35.124028 -116.376036 39 24278ft 456kts
10-Jan-21 22:07 35.212897 -116.265238 40 22592ft 457kts
10-Jan-21 22:08 35.302185 -116.153108 40 20699ft 461kts
10-Jan-21 22:09 35.384885 -116.048500 39 18789ft 389kts
10-Jan-21 22:10 35.454637 -115.960324 38 16856ft 339kts
10-Jan-21 22:11 35.517628 -115.880635 39 15296ft 307kts
10-Jan-21 22:12 35.575723 -115.807042 39 14186ft 297kts
10-Jan-21 22:13 35.635688 -115.730835 40 13218ft 332kts
10-Jan-21 22:14 35.694113 -115.656039 40 13013ft 298kts
10-Jan-21 22:15 35.756794 -115.584003 22 13020ft 311kts
10-Jan-21 22:16 35.841379 -115.571258 359 13025ft 312kts
10-Jan-21 22:17 35.928679 -115.563460 9 13028ft 314kts
10-Jan-21 22:18 35.987475 -115.508580 52 12129ft 251kts
10-Jan-21 22:19 36.018286 -115.415261 63 11224ft 290kts
10-Jan-21 22:20 36.027294 -115.322335 93 10625ft 273kts
10-Jan-21 22:21 36.020401 -115.228195 94 9301ft 277kts
10-Jan-21 22:22 36.014829 -115.132761 80 7791ft 277kts
10-Jan-21 22:23 36.065642 -115.076649 30 6770ft 238kts
10-Jan-21 22:25 36.122929 -115.063034 323 5780ft 220kts
10-Jan-21 22:26 36.155524 -115.114714 283 4080ft 154kts
10-Jan-21 22:27 36.128266 -115.142001 182 3032ft 141kts
10-Jan-21 22:28 36.094760 -115.159262 206 2186ft 104kts
10-Jan-21 22:29 36.084601 -115.165475 223 2184ft 13kts
10-Jan-21 22:30 36.083715 -115.166769 231 2184ft 0kts
10-Jan-21 22:31 36.083230 -115.167343 212 2184ft 7kts
10-Jan-21 22:32 36.082676 -115.168600 206 2184ft 5kts
10-Jan-21 22:33 36.081486 -115.169952 269 2184ft 5kts
10-Jan-21 22:34 36.081147 -115.170663 269 2184ft 0kts
10-Jan-21 22:35 36.081147 -115.170669 269 2184ft 0kts
10-Jan-21 22:36 36.081147 -115.170669 269 2184ft 0kts

Navigation Log

Ident Type
Flight plan parsing failed, navigation log unavailable